Time;durP1;ratioP1;P1;durP2;ratioP2;P2;SDS_P1;SDS_P2;PMS_P1;PMS_P2;Temp;Humidity;BMP_temperature;BMP_pressure;BME280_temperature;BME280_humidity;BME280_pressure;Samples;Min_cycle;Max_cycle;Signal;HPM_P1;HPM_P2
2022/08/05 00:00:18;;;;;;;13.32;4.53;;;;;;;21.03;66.32;100087.03;4980789;28;20409;-75
2022/08/05 00:02:46;;;;;;;13.95;4.10;;;;;;;21.04;66.36;100088.69;4987682;28;20090;-76
2022/08/05 00:05:20;;;;;;;10.35;4.18;;;;;;;20.93;66.26;100078.22;4987932;28;20054;-76
2022/08/05 00:08:08;;;;;;;11.05;4.10;;;;;;;20.95;66.48;100090.03;4980229;28;20046;-76
2022/08/05 00:11:00;;;;;;;14.50;4.50;;;;;;;20.89;66.43;100083.81;4990641;28;20141;-76
2022/08/05 00:13:32;;;;;;;20.58;5.50;;;;;;;20.90;66.54;100088.28;4979952;28;20104;-77
2022/08/05 00:16:08;;;;;;;11.20;4.50;;;;;;;20.77;66.77;100075.34;4988631;28;20050;-80
2022/08/05 00:18:39;;;;;;;18.10;5.45;;;;;;;20.65;66.52;100044.16;4983072;28;20073;-79
2022/08/05 00:21:08;;;;;;;18.98;6.57;;;;;;;20.92;66.74;100094.44;4986556;28;20097;-81
2022/08/05 00:23:36;;;;;;;18.58;6.80;;;;;;;20.95;66.85;100085.19;4983917;28;20104;-81
2022/08/05 00:26:16;;;;;;;15.07;6.28;;;;;;;20.92;67.03;100085.06;5004169;23;20037;-73
2022/08/05 00:28:46;;;;;;;23.50;6.57;;;;;;;20.70;66.76;100050.41;5042438;28;20053;-75
2022/08/05 00:31:15;;;;;;;15.32;6.32;;;;;;;20.95;66.82;100090.84;5044206;28;20071;-76
2022/08/05 00:34:03;;;;;;;15.30;5.65;;;;;;;20.89;66.88;100075.28;5043124;28;20054;-74
2022/08/05 00:36:51;;;;;;;18.27;5.88;;;;;;;20.82;66.86;100072.25;5033179;28;20565;-74
2022/08/05 00:39:43;;;;;;;13.82;6.45;;;;;;;20.85;66.75;100073.53;5026667;28;20192;-74
2022/08/05 00:42:36;;;;;;;16.42;6.60;;;;;;;20.89;66.98;100080.97;5041745;28;20108;-75
2022/08/05 00:45:08;;;;;;;14.38;6.32;;;;;;;21.02;66.77;100091.06;5044263;28;20096;-75
2022/08/05 00:47:39;;;;;;;19.30;7.45;;;;;;;20.90;67.11;100088.28;5046470;28;20102;-74
2022/08/05 00:50:29;;;;;;;15.88;6.72;;;;;;;20.74;66.88;100057.00;5038323;28;20049;-75
2022/08/05 00:52:58;;;;;;;20.10;6.65;;;;;;;20.88;67.00;100072.81;5038480;28;20107;-74
2022/08/05 00:55:25;;;;;;;16.40;6.57;;;;;;;20.95;66.82;100087.19;5044117;28;20092;-74
2022/08/05 00:58:15;;;;;;;12.77;5.38;;;;;;;21.04;66.80;100100.03;5048541;28;20044;-74
2022/08/05 01:00:46;;;;;;;14.18;6.05;;;;;;;21.07;66.94;100098.50;5047536;28;20143;-74
2022/08/05 01:03:16;;;;;;;12.35;5.43;;;;;;;21.01;66.99;100097.09;5048698;28;20057;-75
2022/08/05 01:05:52;;;;;;;12.57;6.20;;;;;;;20.82;66.64;100061.72;5046126;28;20059;-74
2022/08/05 01:08:21;;;;;;;17.00;6.47;;;;;;;20.75;66.71;100053.00;5046761;28;20053;-74
2022/08/05 01:11:23;;;;;;;11.52;5.53;;;;;;;20.95;66.73;100079.50;5052494;28;20516;-74
2022/08/05 01:14:19;;;;;;;17.70;7.65;;;;;;;20.97;66.65;100093.34;5046987;28;20131;-75
2022/08/05 01:17:08;;;;;;;10.63;5.50;;;;;;;20.94;66.50;100079.88;5048707;28;20144;-75
2022/08/05 01:20:31;;;;;;;9.98;4.90;;;;;;;20.78;66.88;100066.44;5043451;28;20567;-74
2022/08/05 01:23:23;;;;;;;12.68;5.20;;;;;;;20.57;66.72;100046.78;5007046;28;20148;-74
2022/08/05 01:26:09;;;;;;;14.35;5.80;;;;;;;20.83;66.64;100100.25;5026643;28;20107;-74
2022/08/05 01:28:55;;;;;;;13.98;5.78;;;;;;;20.71;66.66;100074.75;5024713;28;20077;-74
2022/08/05 01:31:47;;;;;;;15.52;5.82;;;;;;;20.78;66.71;100082.66;5040880;28;20458;-75
2022/08/05 01:34:30;;;;;;;15.52;5.95;;;;;;;20.78;66.74;100077.81;5046676;28;20134;-76
2022/08/05 01:37:13;;;;;;;21.23;6.70;;;;;;;20.64;66.73;100062.38;5048017;28;20092;-74
2022/08/05 01:39:55;;;;;;;13.85;6.00;;;;;;;20.70;66.61;100072.28;5044633;28;20513;-75
2022/08/05 01:42:30;;;;;;;13.85;5.43;;;;;;;20.53;66.79;100056.41;5043777;28;20083;-74
2022/08/05 01:45:02;;;;;;;12.77;5.85;;;;;;;20.56;66.67;100062.19;5045007;28;20098;-75
2022/08/05 01:47:38;;;;;;;11.13;6.35;;;;;;;20.73;66.71;100089.41;5061342;28;20049;-74
2022/08/05 01:50:27;;;;;;;15.18;6.10;;;;;;;20.59;66.82;100074.81;5043807;28;20045;-74
2022/08/05 01:53:02;;;;;;;17.77;5.63;;;;;;;20.66;66.85;100079.88;5043312;28;20110;-74
2022/08/05 01:55:32;;;;;;;15.90;6.20;;;;;;;20.62;66.84;100082.63;5042544;28;20107;-74
2022/08/05 01:58:04;;;;;;;14.65;4.88;;;;;;;20.57;66.94;100085.69;5050175;28;20045;-75
2022/08/05 02:00:56;;;;;;;15.68;5.15;;;;;;;20.36;66.84;100051.81;5047826;28;20045;-74
2022/08/05 02:03:30;;;;;;;25.77;8.80;;;;;;;20.53;66.94;100088.41;5043930;28;20147;-75
2022/08/05 02:06:02;;;;;;;12.77;6.30;;;;;;;20.50;66.83;100086.31;5046032;28;20049;-75
2022/08/05 02:08:49;;;;;;;12.13;5.43;;;;;;;20.43;66.88;100082.41;5045334;28;20057;-74
2022/08/05 02:11:31;;;;;;;13.95;4.90;;;;;;;20.31;67.03;100066.25;5050585;28;20076;-74
2022/08/05 02:14:13;;;;;;;10.50;5.18;;;;;;;20.28;67.02;100058.47;5050974;28;20052;-75
2022/08/05 02:16:53;;;;;;;18.20;5.65;;;;;;;20.42;67.16;100084.41;5046959;28;20464;-75
2022/08/05 02:19:31;;;;;;;22.67;6.63;;;;;;;20.18;67.13;100047.63;5049562;28;20044;-75
2022/08/05 02:22:38;;;;;;;15.18;6.07;;;;;;;20.25;67.05;100057.16;5037497;28;20323;-75
2022/08/05 02:25:16;;;;;;;16.83;6.05;;;;;;;20.43;66.89;100073.88;5042907;28;20053;-74
2022/08/05 02:27:47;;;;;;;11.60;6.10;;;;;;;20.34;67.13;100071.19;5039692;28;20139;-74
2022/08/05 02:30:29;;;;;;;16.77;5.65;;;;;;;20.33;67.44;100069.53;5041412;28;20066;-74
2022/08/05 02:32:59;;;;;;;14.85;5.53;;;;;;;20.38;67.14;100082.66;5046098;28;20079;-74
2022/08/05 02:35:27;;;;;;;15.10;5.47;;;;;;;20.34;67.25;100080.53;5048312;28;20472;-74
2022/08/05 02:38:05;;;;;;;15.82;5.30;;;;;;;20.16;67.14;100064.97;5052834;28;20091;-74
2022/08/05 02:40:39;;;;;;;15.48;5.53;;;;;;;20.30;67.47;100081.59;5051634;28;20045;-74
2022/08/05 02:43:11;;;;;;;12.48;6.28;;;;;;;20.28;67.31;100086.81;5041849;28;20053;-74
2022/08/05 02:45:41;;;;;;;18.30;5.95;;;;;;;20.21;67.42;100083.75;5044380;28;20092;-75
2022/08/05 02:48:21;;;;;;;22.27;6.45;;;;;;;20.18;67.44;100087.31;5041603;28;20048;-74
2022/08/05 02:50:59;;;;;;;17.02;5.75;;;;;;;20.06;67.43;100068.28;5040866;28;20044;-74
2022/08/05 02:53:28;;;;;;;15.50;6.70;;;;;;;20.19;67.43;100088.94;5041569;28;20126;-74
2022/08/05 02:56:11;;;;;;;17.08;6.60;;;;;;;20.18;67.54;100095.81;5049032;28;20135;-74
2022/08/05 02:58:45;;;;;;;9.27;4.90;;;;;;;20.03;67.45;100078.34;5047927;28;20148;-74
2022/08/05 03:01:23;;;;;;;18.77;6.35;;;;;;;20.18;67.48;100101.47;5048641;28;20176;-74
2022/08/05 03:03:53;;;;;;;20.52;6.95;;;;;;;19.99;67.64;100065.22;5046471;28;20045;-74
2022/08/05 03:06:30;;;;;;;13.07;6.00;;;;;;;20.19;67.52;100094.63;5047335;28;20048;-74
2022/08/05 03:09:18;;;;;;;13.93;5.72;;;;;;;20.15;67.92;100085.19;5038828;28;20511;-74
2022/08/05 03:12:03;;;;;;;19.80;7.18;;;;;;;20.31;67.45;100097.44;5047867;28;20045;-74
2022/08/05 03:14:30;;;;;;;18.30;5.72;;;;;;;20.09;67.36;100070.41;5047025;28;20098;-74
2022/08/05 03:16:57;;;;;;;21.77;6.18;;;;;;;20.07;67.53;100067.94;5046647;28;20152;-74
2022/08/05 03:19:24;;;;;;;16.08;6.50;;;;;;;19.83;67.74;100045.31;5041188;28;20192;-74
2022/08/05 03:22:01;;;;;;;17.45;6.30;;;;;;;20.06;67.49;100077.59;5047831;28;21527;-74
2022/08/05 03:24:44;;;;;;;15.70;5.70;;;;;;;20.13;67.41;100079.84;5044606;28;20053;-74
2022/08/05 03:27:17;;;;;;;12.73;6.43;;;;;;;20.16;67.56;100098.16;5030199;28;20089;-74
2022/08/05 03:29:44;;;;;;;14.48;6.03;;;;;;;20.02;67.82;100082.34;5037224;28;20084;-74
2022/08/05 03:32:31;;;;;;;17.50;5.68;;;;;;;19.82;68.12;100037.97;5044207;28;20405;-74
2022/08/05 03:34:59;;;;;;;17.27;5.72;;;;;;;20.16;68.08;100084.00;5043890;28;20079;-74
2022/08/05 03:37:29;;;;;;;14.43;6.15;;;;;;;20.31;67.84;100092.59;5061274;28;20049;-75
2022/08/05 03:40:08;;;;;;;17.73;6.47;;;;;;;20.49;67.85;100104.47;5048046;28;20045;-75
2022/08/05 03:42:39;;;;;;;13.07;5.55;;;;;;;20.35;67.84;100073.69;5049213;28;20047;-74
2022/08/05 03:45:17;;;;;;;12.45;6.10;;;;;;;20.52;67.72;100089.63;5051595;28;20045;-74
2022/08/05 03:47:48;;;;;;;18.15;7.93;;;;;;;20.58;67.81;100082.50;5050492;28;20049;-74
2022/08/05 03:50:16;;;;;;;14.82;7.35;;;;;;;20.68;68.04;100086.00;5051614;28;20482;-74
2022/08/05 03:52:49;;;;;;;13.77;6.95;;;;;;;20.68;67.79;100097.34;5047027;28;20497;-74
2022/08/05 03:55:41;;;;;;;21.90;8.98;;;;;;;20.47;68.28;100083.31;5037711;28;20044;-74
2022/08/05 03:58:32;;;;;;;24.17;8.88;;;;;;;20.50;67.99;100094.81;5043864;28;20517;-74
2022/08/05 04:01:00;;;;;;;27.02;8.68;;;;;;;20.18;68.32;100036.28;5046755;28;20068;-74
2022/08/05 04:03:34;;;;;;;21.58;9.00;;;;;;;20.55;68.24;100100.25;5048675;28;20053;-74
2022/08/05 04:06:05;;;;;;;23.15;9.65;;;;;;;20.52;68.34;100074.63;5041498;28;20049;-74
2022/08/05 04:08:34;;;;;;;24.05;8.80;;;;;;;20.59;68.33;100072.81;5044632;28;20053;-74
2022/08/05 04:11:06;;;;;;;28.20;10.40;;;;;;;20.73;68.25;100088.59;5041737;28;20057;-74
2022/08/05 04:13:39;;;;;;;30.48;10.07;;;;;;;20.61;68.16;100075.28;5042945;28;20045;-73
2022/08/05 04:16:17;;;;;;;32.25;11.77;;;;;;;20.69;68.31;100082.00;5041541;28;20052;-74
2022/08/05 04:18:51;;;;;;;24.45;10.70;;;;;;;20.70;68.25;100069.47;5049411;28;20048;-74
2022/08/05 04:21:20;;;;;;;38.63;11.68;;;;;;;20.74;68.09;100073.22;5044442;28;20045;-73
2022/08/05 04:24:07;;;;;;;30.65;12.23;;;;;;;20.86;68.26;100073.19;5038366;28;20051;-75
2022/08/05 04:26:47;;;;;;;30.67;11.55;;;;;;;20.82;68.00;100066.59;5041276;28;20087;-75
2022/08/05 04:29:14;;;;;;;30.58;11.35;;;;;;;20.86;68.03;100069.53;5048616;28;20056;-74
2022/08/05 04:31:41;;;;;;;31.75;14.25;;;;;;;20.89;67.91;100089.50;5038751;28;20164;-75
2022/08/05 04:34:08;;;;;;;31.42;11.98;;;;;;;20.83;68.13;100088.09;5040685;28;20508;-74
2022/08/05 04:36:55;;;;;;;28.77;13.52;;;;;;;20.68;68.32;100068.97;5046784;28;20055;-74
2022/08/05 04:39:23;;;;;;;31.77;12.63;;;;;;;20.81;68.41;100105.47;5047367;28;20501;-75
2022/08/05 04:41:52;;;;;;;33.58;11.45;;;;;;;20.60;68.13;100079.31;5047963;28;20523;-75
2022/08/05 04:44:21;;;;;;;31.85;12.27;;;;;;;20.70;68.45;100090.13;5045467;28;20056;-76
2022/08/05 04:46:57;;;;;;;27.20;11.52;;;;;;;20.50;68.44;100052.25;5044588;28;20095;-74
2022/08/05 04:49:25;;;;;;;36.67;12.52;;;;;;;20.74;68.35;100085.38;5043677;28;20059;-75
2022/08/05 04:52:11;;;;;;;32.35;11.73;;;;;;;20.82;68.26;100103.47;5042814;28;20056;-75
2022/08/05 04:54:38;;;;;;;39.80;13.20;;;;;;;20.67;68.51;100073.84;5047387;28;20143;-75
2022/08/05 04:57:05;;;;;;;31.08;12.50;;;;;;;20.98;68.32;100103.50;5052454;28;20053;-75
2022/08/05 04:59:32;;;;;;;37.60;11.95;;;;;;;20.91;68.20;100084.25;5040945;28;20057;-75
2022/08/05 05:02:05;;;;;;;38.85;12.30;;;;;;;21.08;68.11;100107.84;5046887;28;20041;-76
2022/08/05 05:04:52;;;;;;;25.25;10.80;;;;;;;21.11;67.95;100127.00;5045740;28;20053;-76
2022/08/05 05:07:28;;;;;;;25.85;12.18;;;;;;;20.97;67.68;100088.50;5047294;28;20073;-75
2022/08/05 05:09:57;;;;;;;25.85;12.60;;;;;;;21.16;67.81;100112.53;5046846;28;20102;-76
2022/08/05 05:12:28;;;;;;;;;;;;;;;21.10;67.90;100116.84;5047952;28;20045;-76
2022/08/05 05:14:54;;;;;;;29.83;12.57;;;;;;;21.02;67.70;100110.94;5047959;28;20020;-75
2022/08/05 05:17:21;;;;;;;31.02;12.55;;;;;;;20.97;67.82;100105.53;5048461;28;20087;-75
2022/08/05 05:20:10;;;;;;;37.67;14.23;;;;;;;21.10;67.71;100122.50;5043793;28;20053;-75
2022/08/05 05:22:37;;;;;;;31.85;13.82;;;;;;;21.13;67.89;100124.59;5046495;28;20131;-75
2022/08/05 05:25:07;;;;;;;46.40;12.88;;;;;;;20.98;67.83;100104.31;5045410;28;20044;-75
2022/08/05 05:27:43;;;;;;;26.75;11.55;;;;;;;21.01;67.60;100128.34;5049185;28;20092;-74
2022/08/05 05:30:19;;;;;;;32.75;13.68;;;;;;;20.97;68.33;100138.75;5046594;28;20060;-75
2022/08/05 05:32:59;;;;;;;31.55;12.40;;;;;;;20.76;68.17;100113.41;5061050;28;20627;-76
2022/08/05 05:35:42;;;;;;;37.63;13.77;;;;;;;20.84;68.15;100129.47;5040027;28;20168;-74
2022/08/05 05:38:09;;;;;;;29.60;12.25;;;;;;;20.71;68.13;100125.00;5046507;28;20107;-74
2022/08/05 05:40:41;;;;;;;35.40;13.15;;;;;;;20.75;68.27;100142.97;5043356;28;20061;-73
2022/08/05 05:43:21;;;;;;;30.73;13.50;;;;;;;20.58;68.28;100127.06;5047800;28;20045;-78
2022/08/05 05:46:08;;;;;;;31.48;12.35;;;;;;;20.53;68.78;100124.47;5054906;28;20128;-75
2022/08/05 05:48:42;;;;;;;33.38;12.52;;;;;;;20.72;68.77;100146.53;5045573;28;20049;-75
2022/08/05 05:51:10;;;;;;;38.58;13.60;;;;;;;20.38;68.76;100089.16;5045617;28;20524;-77
2022/08/05 05:53:42;;;;;;;29.38;12.20;;;;;;;20.50;68.95;100114.66;5047871;28;20053;-77
2022/08/05 05:56:24;;;;;;;31.27;12.07;;;;;;;20.34;68.95;100100.38;5045389;28;20045;-76
2022/08/05 05:59:04;;;;;;;32.25;13.18;;;;;;;20.49;68.87;100130.00;5055745;28;20136;-75
2022/08/05 06:01:35;;;;;;;30.35;13.45;;;;;;;20.50;68.95;100137.34;5044255;28;20041;-76
2022/08/05 06:04:09;;;;;;;48.22;14.00;;;;;;;20.42;69.04;100126.94;5043733;28;20056;-75
2022/08/05 06:06:41;;;;;;;38.03;13.82;;;;;;;20.43;69.31;100128.59;5047509;28;20040;-77
2022/08/05 06:09:08;;;;;;;43.70;15.20;;;;;;;20.60;69.34;100150.22;5066202;28;20048;-79
2022/08/05 06:11:51;;;;;;;36.35;13.82;;;;;;;20.67;69.30;100166.66;5062169;28;20065;-80
2022/08/05 06:14:29;;;;;;;42.10;15.00;;;;;;;20.64;69.24;100153.16;5059097;28;20076;-80
2022/08/05 06:16:56;;;;;;;31.88;14.65;;;;;;;20.76;69.31;100168.16;5050897;28;20084;-77
2022/08/05 06:19:25;;;;;;;39.10;13.93;;;;;;;20.80;69.26;100165.44;5043887;28;20045;-79
2022/08/05 06:22:02;;;;;;;38.85;13.77;;;;;;;20.82;69.52;100157.41;5048884;28;20072;-77
2022/08/05 06:24:33;;;;;;;35.60;13.48;;;;;;;20.76;69.27;100148.28;5043081;28;20057;-77
2022/08/05 06:27:03;;;;;;;32.53;12.43;;;;;;;20.66;68.88;100142.31;5041545;28;20472;-76
2022/08/05 06:29:42;;;;;;;;;;;;;;;20.75;69.37;100168.50;5044046;28;20053;-77
2022/08/05 06:32:19;;;;;;;29.73;12.20;;;;;;;20.59;69.20;100145.75;5041811;28;19924;-77
2022/08/05 06:34:56;;;;;;;28.13;12.35;;;;;;;20.69;69.39;100153.75;5043591;28;20467;-77
2022/08/05 06:37:27;;;;;;;32.87;13.53;;;;;;;20.51;69.12;100141.00;5040701;28;20055;-79
2022/08/05 06:40:14;;;;;;;37.50;14.07;;;;;;;20.69;69.35;100164.28;5041708;28;20067;-77
2022/08/05 06:42:47;;;;;;;38.70;15.90;;;;;;;20.73;69.18;100163.19;5036156;28;20045;-78
2022/08/05 06:45:18;;;;;;;38.50;13.70;;;;;;;20.85;69.36;100179.34;5041259;28;20085;-79
2022/08/05 06:47:47;;;;;;;33.03;13.40;;;;;;;20.90;69.54;100159.25;5048797;28;20513;-78
2022/08/05 06:50:34;;;;;;;29.95;12.07;;;;;;;21.06;69.25;100171.50;5042242;28;20045;-78
2022/08/05 06:53:01;;;;;;;24.65;11.98;;;;;;;21.02;68.95;100159.19;5045655;28;20144;-79
2022/08/05 06:55:37;;;;;;;32.25;11.55;;;;;;;21.21;69.06;100166.22;5047386;28;20426;-78
2022/08/05 06:58:08;;;;;;;25.92;10.45;;;;;;;21.27;68.89;100161.94;5050289;28;20102;-78
2022/08/05 07:00:58;;;;;;;21.50;9.23;;;;;;;21.40;68.61;100169.25;5043393;28;20076;-78
2022/08/05 07:03:27;;;;;;;23.55;10.52;;;;;;;21.37;68.49;100181.34;5053181;28;20045;-79
2022/08/05 07:06:01;;;;;;;28.25;11.10;;;;;;;21.24;68.45;100163.50;5049203;28;20429;-78
2022/08/05 07:08:41;;;;;;;27.48;11.27;;;;;;;21.32;68.51;100167.34;5051770;28;20053;-78
2022/08/05 07:11:17;;;;;;;27.63;11.98;;;;;;;21.36;68.59;100162.63;5040750;28;20040;-81
2022/08/05 07:16:49;;;;;;;30.83;13.07;;;;;;;21.66;68.38;100193.47;5044305;28;20103;-76
2022/08/05 07:19:37;;;;;;;39.30;15.15;;;;;;;21.61;67.86;100151.97;5043267;28;20057;-75
2022/08/05 07:22:24;;;;;;;27.00;12.88;;;;;;;21.73;67.89;100177.44;5047791;28;20052;-75
2022/08/05 07:24:57;;;;;;;31.98;13.95;;;;;;;21.56;67.79;100142.88;5029023;28;20493;-75
2022/08/05 07:27:24;;;;;;;24.95;11.45;;;;;;;21.73;67.67;100159.56;5037711;28;20061;-75
2022/08/05 07:30:04;;;;;;;25.95;12.52;;;;;;;21.91;67.30;100160.84;5044329;28;20485;-76
2022/08/05 07:32:51;;;;;;;27.35;11.38;;;;;;;21.81;67.30;100138.66;5040136;28;20064;-75
2022/08/05 07:35:19;;;;;;;25.70;12.63;;;;;;;21.97;67.28;100176.44;5042614;28;20045;-75
2022/08/05 07:38:06;;;;;;;27.95;11.05;;;;;;;22.13;67.18;100184.97;5035823;28;20048;-75
2022/08/05 07:40:38;;;;;;;26.58;11.52;;;;;;;21.79;66.96;100106.94;5041278;28;20111;-75
2022/08/05 07:43:12;;;;;;;22.77;11.23;;;;;;;22.34;66.75;100156.25;5042542;28;20056;-76
2022/08/05 07:45:46;;;;;;;24.80;10.60;;;;;;;22.37;66.88;100152.69;5041452;28;20052;-75
2022/08/05 07:48:24;;;;;;;23.02;11.38;;;;;;;22.37;66.56;100155.53;5038893;28;20598;-75
2022/08/05 07:51:11;;;;;;;24.90;11.98;;;;;;;22.48;66.51;100156.59;5038153;28;20064;-77
2022/08/05 07:53:58;;;;;;;26.80;11.32;;;;;;;22.60;66.17;100174.75;5039935;28;20531;-74
2022/08/05 07:56:27;;;;;;;28.08;13.05;;;;;;;22.68;65.89;100159.47;5040488;28;20131;-74
2022/08/05 07:59:14;;;;;;;25.10;11.90;;;;;;;22.76;65.76;100169.81;5042561;28;20409;-75
2022/08/05 08:01:41;;;;;;;21.17;10.98;;;;;;;22.42;65.92;100132.47;5041817;28;20100;-75
2022/08/05 08:04:23;;;;;;;27.58;12.95;;;;;;;22.73;65.99;100206.75;5043660;28;20056;-75
2022/08/05 08:07:04;;;;;;;33.05;13.85;;;;;;;22.58;65.62;100171.44;5043091;28;20084;-75
2022/08/05 08:09:34;;;;;;;26.65;13.25;;;;;;;22.67;65.62;100186.31;5047752;28;20546;-74
2022/08/05 08:12:03;;;;;;;21.90;11.93;;;;;;;22.34;65.71;100132.69;5047166;28;20057;-75
2022/08/05 08:14:43;;;;;;;26.48;11.82;;;;;;;22.79;65.54;100171.94;5047402;28;20049;-74
2022/08/05 08:17:13;;;;;;;21.73;12.68;;;;;;;22.78;65.41;100158.91;5046381;28;20060;-74
2022/08/05 08:19:47;;;;;;;25.45;11.65;;;;;;;22.92;64.93;100169.78;5039223;28;20071;-74
2022/08/05 08:22:34;;;;;;;20.52;11.13;;;;;;;23.10;65.18;100188.09;5044748;28;20056;-74
2022/08/05 08:25:01;;;;;;;24.25;12.38;;;;;;;23.14;65.07;100166.19;5041790;28;20136;-73
2022/08/05 08:27:43;;;;;;;24.60;12.32;;;;;;;23.44;64.79;100185.53;5049179;28;20110;-75
2022/08/05 08:30:14;;;;;;;29.38;12.40;;;;;;;23.55;64.39;100185.72;5046998;28;20057;-74
2022/08/05 08:33:09;;;;;;;32.97;12.93;;;;;;;23.39;64.33;100183.00;5049450;28;20079;-73
2022/08/05 08:35:40;;;;;;;22.75;12.30;;;;;;;23.34;64.46;100181.25;5044538;28;20095;-73
2022/08/05 08:38:27;;;;;;;24.27;11.68;;;;;;;23.52;64.43;100195.88;5045836;28;20465;-73
2022/08/05 08:41:06;;;;;;;20.65;11.07;;;;;;;23.43;63.72;100178.19;5043266;28;20106;-73
2022/08/05 08:43:35;;;;;;;25.90;12.27;;;;;;;23.49;63.65;100185.25;5045860;28;20139;-73
2022/08/05 08:46:25;;;;;;;22.13;11.52;;;;;;;23.57;63.81;100177.63;5043939;28;20060;-74
2022/08/05 08:48:53;;;;;;;22.55;11.57;;;;;;;23.80;63.35;100175.66;5048545;28;20459;-74
2022/08/05 08:51:45;;;;;;;22.13;12.03;;;;;;;24.18;63.12;100179.59;5045398;28;20048;-73
2022/08/05 08:54:32;;;;;;;20.65;11.43;;;;;;;24.54;62.55;100192.41;5043887;28;20433;-73
2022/08/05 08:57:04;;;;;;;23.85;12.07;;;;;;;24.95;62.00;100203.19;5042034;28;20053;-75
2022/08/05 08:59:38;;;;;;;22.58;11.40;;;;;;;25.29;61.60;100207.78;5043641;28;20057;-75
2022/08/05 09:02:13;;;;;;;26.10;12.75;;;;;;;25.40;61.21;100165.06;5042069;28;20077;-75
2022/08/05 09:04:44;;;;;;;25.20;13.13;;;;;;;25.40;60.38;100173.63;5040486;28;20148;-81
2022/08/05 09:07:31;;;;;;;20.33;11.40;;;;;;;25.50;60.62;100197.81;5039390;28;20060;-78
2022/08/05 09:10:19;;;;;;;23.08;10.88;;;;;;;25.72;60.51;100205.41;5040331;28;20297;-75
2022/08/05 09:12:46;;;;;;;18.73;11.55;;;;;;;25.96;59.87;100206.09;5036706;28;20736;-73
2022/08/05 09:15:18;;;;;;;20.98;10.27;;;;;;;26.20;59.44;100185.47;5043223;28;20052;-76
2022/08/05 09:17:46;;;;;;;22.42;11.77;;;;;;;26.50;58.65;100201.69;5034855;28;20053;-73
2022/08/05 09:20:15;;;;;;;22.20;11.30;;;;;;;26.61;58.20;100204.63;5040840;28;20057;-75
2022/08/05 09:23:29;;;;;;;28.80;12.90;;;;;;;26.61;58.40;100187.47;5038008;28;20064;-76
2022/08/05 09:26:11;;;;;;;22.88;11.88;;;;;;;27.02;57.36;100190.16;5048937;28;20057;-76
2022/08/05 09:28:48;;;;;;;20.02;11.13;;;;;;;26.99;56.96;100157.38;5042878;28;20056;-76
2022/08/05 09:31:15;;;;;;;21.42;11.63;;;;;;;27.27;56.31;100207.50;5042851;28;20047;-75
2022/08/05 09:33:55;;;;;;;19.77;12.15;;;;;;;27.22;56.47;100199.31;5043773;28;21347;-75
2022/08/05 09:36:23;;;;;;;18.85;10.77;;;;;;;27.29;56.17;100207.94;5043359;28;20053;-76
2022/08/05 09:39:04;;;;;;;16.48;9.80;;;;;;;27.54;55.81;100214.56;5045277;28;20079;-76
2022/08/05 09:42:06;;;;;;;22.40;11.05;;;;;;;28.09;55.16;100214.31;5047656;28;20052;-76
2022/08/05 09:44:42;;;;;;;25.73;11.43;;;;;;;28.32;54.44;100213.91;5047650;28;20071;-75
2022/08/05 09:47:12;;;;;;;20.35;11.35;;;;;;;27.68;54.14;100161.34;5045093;28;20045;-77
2022/08/05 09:49:44;;;;;;;18.10;10.25;;;;;;;28.02;54.49;100214.28;5043154;28;20440;-76
2022/08/05 09:52:33;;;;;;;15.88;9.50;;;;;;;28.26;54.07;100223.34;5068583;28;20045;-75
2022/08/05 09:55:05;;;;;;;11.77;8.25;;;;;;;27.95;53.92;100225.75;5049018;28;20051;-74
2022/08/05 09:57:52;;;;;;;16.55;8.20;;;;;;;27.65;54.23;100237.53;5059282;28;20045;-73
2022/08/05 10:00:25;;;;;;;12.57;7.85;;;;;;;27.56;53.86;100220.72;5048427;28;20080;-75
2022/08/05 10:02:54;;;;;;;15.18;8.27;;;;;;;27.64;53.67;100242.47;5045188;28;20477;-74
2022/08/05 10:05:26;;;;;;;15.80;9.27;;;;;;;27.44;53.07;100252.63;5046212;28;20064;-76
2022/08/05 10:07:54;;;;;;;;;;;;;;;26.87;54.94;100246.53;5046139;28;20049;-76
2022/08/05 10:10:47;;;;;;;13.15;7.40;;;;;;;26.13;55.13;100188.28;5035959;28;19935;-75
2022/08/05 10:13:34;;;;;;;14.23;8.18;;;;;;;26.27;54.92;100241.16;5037699;28;20063;-75
2022/08/05 10:16:34;;;;;;;13.07;8.25;;;;;;;26.16;55.70;100241.88;5041793;28;20080;-76
2022/08/05 10:19:18;;;;;;;13.52;6.80;;;;;;;25.80;55.54;100220.66;5037969;28;20132;-76
2022/08/05 10:22:07;;;;;;;12.00;6.80;;;;;;;25.68;55.80;100232.34;5040623;28;20049;-75
2022/08/05 10:24:36;;;;;;;12.25;7.10;;;;;;;25.29;55.98;100216.34;5043368;28;20080;-75
2022/08/05 10:27:05;;;;;;;11.90;6.95;;;;;;;25.17;55.90;100219.47;5041679;28;20139;-75
2022/08/05 10:29:35;;;;;;;15.65;8.68;;;;;;;25.01;56.67;100235.94;5042092;28;20517;-75
2022/08/05 10:32:22;;;;;;;12.95;7.05;;;;;;;25.09;56.95;100259.72;5037321;28;20075;-75
2022/08/05 10:35:09;;;;;;;10.88;6.43;;;;;;;24.92;56.76;100255.38;5054926;28;20082;-76
2022/08/05 10:37:37;;;;;;;12.25;6.40;;;;;;;24.76;56.81;100259.25;5042421;28;20160;-76
2022/08/05 10:40:33;;;;;;;15.35;6.93;;;;;;;24.64;57.12;100250.88;5048595;28;20528;-73
2022/08/05 10:43:50;;;;;;;14.20;6.63;;;;;;;24.40;58.00;100240.72;5044862;28;20490;-75
2022/08/05 10:46:20;;;;;;;13.25;7.05;;;;;;;24.52;57.61;100266.22;5044786;28;20053;-75
2022/08/05 10:48:56;;;;;;;13.38;6.97;;;;;;;24.49;57.73;100261.25;5040549;28;20533;-74
2022/08/05 10:51:46;;;;;;;13.82;7.10;;;;;;;24.39;58.15;100253.31;5045133;28;20060;-74
2022/08/05 10:54:47;;;;;;;9.27;6.35;;;;;;;24.54;58.39;100257.25;5044390;28;20053;-73
2022/08/05 10:57:27;;;;;;;8.30;5.88;;;;;;;24.90;57.56;100264.34;5037935;28;20057;-76
2022/08/05 11:00:23;;;;;;;15.00;6.63;;;;;;;24.92;57.63;100256.19;5033058;28;20057;-75
2022/08/05 11:03:05;;;;;;;10.23;5.82;;;;;;;24.81;57.60;100263.78;5039436;28;20049;-76
2022/08/05 11:06:07;;;;;;;12.32;6.60;;;;;;;24.91;57.71;100260.28;5034474;28;20096;-77
2022/08/05 11:09:16;;;;;;;11.38;6.18;;;;;;;24.95;57.90;100263.19;5044579;28;20057;-77
2022/08/05 11:11:52;;;;;;;15.32;7.22;;;;;;;24.74;57.51;100230.25;5043359;28;20150;-76
2022/08/05 11:14:27;;;;;;;11.88;6.53;;;;;;;25.00;57.52;100265.72;5047249;28;20127;-78
2022/08/05 11:17:33;;;;;;;12.45;6.20;;;;;;;24.99;57.75;100264.06;5046160;28;20049;-75
2022/08/05 11:20:39;;;;;;;12.13;6.63;;;;;;;25.13;57.44;100261.47;5048655;28;20061;-77
2022/08/05 11:23:26;;;;;;;11.13;6.25;;;;;;;25.37;57.23;100276.44;5048969;28;20045;-78
2022/08/05 11:26:16;;;;;;;12.90;5.80;;;;;;;25.60;56.27;100270.63;5035866;28;20057;-77
2022/08/05 11:29:02;;;;;;;14.48;6.10;;;;;;;25.61;56.53;100244.53;5042559;28;20124;-77
2022/08/05 11:31:43;;;;;;;9.18;5.75;;;;;;;26.03;55.77;100276.88;5047356;28;20462;-77
2022/08/05 11:34:40;;;;;;;10.32;5.97;;;;;;;25.73;56.23;100274.88;5045834;28;20064;-76
2022/08/05 11:37:40;;;;;;;9.93;6.75;;;;;;;25.38;56.93;100278.13;5041356;28;20144;-76
2022/08/05 11:40:56;;;;;;;9.90;6.28;;;;;;;25.35;56.49;100281.75;5047785;28;20051;-76
2022/08/05 11:43:51;;;;;;;9.90;5.55;;;;;;;25.35;56.75;100281.75;5048208;28;20132;-76
2022/08/05 11:46:46;;;;;;;10.55;6.25;;;;;;;25.33;56.39;100278.44;5046941;28;20049;-75
2022/08/05 11:49:33;;;;;;;8.20;5.25;;;;;;;25.44;56.33;100290.88;5048315;28;20057;-77
2022/08/05 11:52:01;;;;;;;8.63;5.15;;;;;;;25.54;56.32;100284.47;5046748;28;20140;-77
2022/08/05 11:54:38;;;;;;;9.65;5.80;;;;;;;25.52;56.24;100249.72;5048673;28;20178;-77
2022/08/05 11:57:07;;;;;;;8.88;4.93;;;;;;;25.93;55.75;100292.72;5042300;28;20455;-77
2022/08/05 11:59:51;;;;;;;9.57;5.60;;;;;;;25.92;55.07;100246.13;5047323;28;20056;-76
2022/08/05 12:02:25;;;;;;;10.80;6.45;;;;;;;26.01;55.51;100280.13;5046154;28;20554;-77
2022/08/05 12:05:02;;;;;;;12.30;7.45;;;;;;;25.95;55.77;100284.56;5050765;28;20102;-77
2022/08/05 12:07:36;;;;;;;11.25;6.63;;;;;;;26.04;55.36;100261.34;5045872;28;20581;-77